sensor_id;sensor_type;location;lat;lon;timestamp;P1;durP1;ratioP1;P2;durP2;ratioP2
73900;SDS011;62235;52.160;7.526;2024-01-30T00:02:18;15.73;;;6.88;;
73900;SDS011;62235;52.160;7.526;2024-01-30T00:04:45;13.73;;;7.32;;
73900;SDS011;62235;52.160;7.526;2024-01-30T00:07:12;10.27;;;5.65;;
73900;SDS011;62235;52.160;7.526;2024-01-30T00:09:38;12.15;;;5.88;;
73900;SDS011;62235;52.160;7.526;2024-01-30T00:12:05;14.50;;;6.63;;
73900;SDS011;62235;52.160;7.526;2024-01-30T00:14:32;13.25;;;6.60;;
73900;SDS011;62235;52.160;7.526;2024-01-30T00:16:58;11.13;;;6.20;;
73900;SDS011;62235;52.160;7.526;2024-01-30T00:19:25;11.90;;;5.88;;
73900;SDS011;62235;52.160;7.526;2024-01-30T00:21:51;12.05;;;6.13;;
73900;SDS011;62235;52.160;7.526;2024-01-30T00:24:18;9.25;;;5.18;;
73900;SDS011;62235;52.160;7.526;2024-01-30T00:26:44;11.13;;;5.85;;
73900;SDS011;62235;52.160;7.526;2024-01-30T00:29:11;11.05;;;5.90;;
73900;SDS011;62235;52.160;7.526;2024-01-30T00:31:37;11.80;;;5.28;;
73900;SDS011;62235;52.160;7.526;2024-01-30T00:34:07;9.38;;;5.40;;
73900;SDS011;62235;52.160;7.526;2024-01-30T00:36:34;10.48;;;5.38;;
73900;SDS011;62235;52.160;7.526;2024-01-30T00:39:00;9.50;;;5.60;;
73900;SDS011;62235;52.160;7.526;2024-01-30T00:41:26;11.70;;;5.63;;
73900;SDS011;62235;52.160;7.526;2024-01-30T00:43:53;8.95;;;5.15;;
73900;SDS011;62235;52.160;7.526;2024-01-30T00:46:19;11.63;;;5.35;;
73900;SDS011;62235;52.160;7.526;2024-01-30T00:48:46;8.70;;;4.90;;
73900;SDS011;62235;52.160;7.526;2024-01-30T00:51:12;10.95;;;6.22;;
73900;SDS011;62235;52.160;7.526;2024-01-30T00:53:39;14.23;;;6.18;;
73900;SDS011;62235;52.160;7.526;2024-01-30T00:56:06;9.32;;;5.03;;
73900;SDS011;62235;52.160;7.526;2024-01-30T00:58:33;10.05;;;5.22;;
73900;SDS011;62235;52.160;7.526;2024-01-30T01:00:59;9.05;;;5.45;;
73900;SDS011;62235;52.160;7.526;2024-01-30T01:03:26;10.98;;;6.25;;
73900;SDS011;62235;52.160;7.526;2024-01-30T01:05:52;10.57;;;6.15;;
73900;SDS011;62235;52.160;7.526;2024-01-30T01:08:18;12.32;;;6.07;;
73900;SDS011;62235;52.160;7.526;2024-01-30T01:10:45;11.05;;;5.97;;
73900;SDS011;62235;52.160;7.526;2024-01-30T01:13:11;13.73;;;5.97;;
73900;SDS011;62235;52.160;7.526;2024-01-30T01:15:38;12.45;;;6.40;;
73900;SDS011;62235;52.160;7.526;2024-01-30T01:18:05;9.95;;;6.32;;
73900;SDS011;62235;52.160;7.526;2024-01-30T01:20:31;12.07;;;6.28;;
73900;SDS011;62235;52.160;7.526;2024-01-30T01:22:57;10.20;;;5.97;;
73900;SDS011;62235;52.160;7.526;2024-01-30T01:25:24;10.90;;;6.60;;
73900;SDS011;62235;52.160;7.526;2024-01-30T01:27:51;13.38;;;6.38;;
73900;SDS011;62235;52.160;7.526;2024-01-30T01:30:17;10.45;;;6.53;;
73900;SDS011;62235;52.160;7.526;2024-01-30T01:32:44;10.73;;;6.20;;
73900;SDS011;62235;52.160;7.526;2024-01-30T01:35:10;12.63;;;6.32;;
73900;SDS011;62235;52.160;7.526;2024-01-30T01:37:37;14.00;;;6.82;;
73900;SDS011;62235;52.160;7.526;2024-01-30T01:40:03;13.82;;;6.22;;
73900;SDS011;62235;52.160;7.526;2024-01-30T01:42:30;9.27;;;5.78;;
73900;SDS011;62235;52.160;7.526;2024-01-30T01:44:57;9.32;;;5.80;;
73900;SDS011;62235;52.160;7.526;2024-01-30T01:47:23;13.02;;;5.90;;
73900;SDS011;62235;52.160;7.526;2024-01-30T01:49:52;10.65;;;6.20;;
73900;SDS011;62235;52.160;7.526;2024-01-30T01:52:18;11.32;;;5.95;;
73900;SDS011;62235;52.160;7.526;2024-01-30T01:54:45;11.40;;;5.75;;
73900;SDS011;62235;52.160;7.526;2024-01-30T01:57:11;11.18;;;5.97;;
73900;SDS011;62235;52.160;7.526;2024-01-30T01:59:38;11.35;;;5.63;;
73900;SDS011;62235;52.160;7.526;2024-01-30T02:02:04;12.23;;;6.25;;
73900;SDS011;62235;52.160;7.526;2024-01-30T02:04:32;11.57;;;5.82;;
73900;SDS011;62235;52.160;7.526;2024-01-30T02:06:58;10.65;;;5.80;;
73900;SDS011;62235;52.160;7.526;2024-01-30T02:09:25;10.13;;;5.68;;
73900;SDS011;62235;52.160;7.526;2024-01-30T02:11:51;10.93;;;5.72;;
73900;SDS011;62235;52.160;7.526;2024-01-30T02:14:18;14.10;;;6.40;;
73900;SDS011;62235;52.160;7.526;2024-01-30T02:16:44;11.25;;;6.03;;
73900;SDS011;62235;52.160;7.526;2024-01-30T02:19:11;10.68;;;5.93;;
73900;SDS011;62235;52.160;7.526;2024-01-30T02:21:37;11.02;;;5.70;;
73900;SDS011;62235;52.160;7.526;2024-01-30T02:24:04;9.65;;;5.28;;
73900;SDS011;62235;52.160;7.526;2024-01-30T02:26:30;9.35;;;5.90;;
73900;SDS011;62235;52.160;7.526;2024-01-30T02:28:57;9.50;;;5.75;;
73900;SDS011;62235;52.160;7.526;2024-01-30T02:31:24;11.43;;;5.97;;
73900;SDS011;62235;52.160;7.526;2024-01-30T02:33:51;12.38;;;6.28;;
73900;SDS011;62235;52.160;7.526;2024-01-30T02:36:18;10.30;;;6.03;;
73900;SDS011;62235;52.160;7.526;2024-01-30T02:38:44;10.77;;;5.70;;
73900;SDS011;62235;52.160;7.526;2024-01-30T02:41:10;10.93;;;6.18;;
73900;SDS011;62235;52.160;7.526;2024-01-30T02:43:37;12.95;;;6.47;;
73900;SDS011;62235;52.160;7.526;2024-01-30T02:46:03;10.93;;;6.18;;
73900;SDS011;62235;52.160;7.526;2024-01-30T02:48:30;11.30;;;6.40;;
73900;SDS011;62235;52.160;7.526;2024-01-30T02:50:56;10.35;;;5.75;;
73900;SDS011;62235;52.160;7.526;2024-01-30T02:53:22;11.75;;;6.20;;
73900;SDS011;62235;52.160;7.526;2024-01-30T02:55:49;11.57;;;6.32;;
73900;SDS011;62235;52.160;7.526;2024-01-30T02:58:16;12.35;;;6.28;;
73900;SDS011;62235;52.160;7.526;2024-01-30T03:00:42;11.73;;;5.82;;
73900;SDS011;62235;52.160;7.526;2024-01-30T03:03:09;12.48;;;6.43;;
73900;SDS011;62235;52.160;7.526;2024-01-30T03:05:35;11.15;;;6.25;;
73900;SDS011;62235;52.160;7.526;2024-01-30T03:08:01;10.82;;;6.25;;
73900;SDS011;62235;52.160;7.526;2024-01-30T03:10:28;10.98;;;6.50;;
73900;SDS011;62235;52.160;7.526;2024-01-30T03:12:55;11.63;;;6.05;;
73900;SDS011;62235;52.160;7.526;2024-01-30T03:15:21;13.45;;;5.80;;
73900;SDS011;62235;52.160;7.526;2024-01-30T03:17:47;9.68;;;5.43;;
73900;SDS011;62235;52.160;7.526;2024-01-30T03:20:14;10.25;;;5.63;;
73900;SDS011;62235;52.160;7.526;2024-01-30T03:22:40;13.23;;;5.78;;
73900;SDS011;62235;52.160;7.526;2024-01-30T03:25:07;12.07;;;5.93;;
73900;SDS011;62235;52.160;7.526;2024-01-30T03:27:33;9.80;;;5.40;;
73900;SDS011;62235;52.160;7.526;2024-01-30T03:30:00;7.82;;;4.82;;
73900;SDS011;62235;52.160;7.526;2024-01-30T03:32:26;12.57;;;6.30;;
73900;SDS011;62235;52.160;7.526;2024-01-30T03:34:53;10.52;;;5.80;;
73900;SDS011;62235;52.160;7.526;2024-01-30T03:37:19;9.38;;;5.35;;
73900;SDS011;62235;52.160;7.526;2024-01-30T03:39:46;9.93;;;5.28;;
73900;SDS011;62235;52.160;7.526;2024-01-30T03:42:12;10.40;;;5.85;;
73900;SDS011;62235;52.160;7.526;2024-01-30T03:44:39;11.35;;;5.80;;
73900;SDS011;62235;52.160;7.526;2024-01-30T03:47:05;7.63;;;4.57;;
73900;SDS011;62235;52.160;7.526;2024-01-30T03:49:32;8.90;;;5.30;;
73900;SDS011;62235;52.160;7.526;2024-01-30T03:51:58;10.57;;;5.65;;
73900;SDS011;62235;52.160;7.526;2024-01-30T03:54:25;9.77;;;5.43;;
73900;SDS011;62235;52.160;7.526;2024-01-30T03:56:51;10.40;;;5.10;;
73900;SDS011;62235;52.160;7.526;2024-01-30T03:59:18;10.00;;;5.57;;
73900;SDS011;62235;52.160;7.526;2024-01-30T04:01:46;11.13;;;5.60;;
73900;SDS011;62235;52.160;7.526;2024-01-30T04:04:12;10.30;;;5.10;;
73900;SDS011;62235;52.160;7.526;2024-01-30T04:06:39;11.77;;;5.95;;
73900;SDS011;62235;52.160;7.526;2024-01-30T04:09:05;9.32;;;5.82;;
73900;SDS011;62235;52.160;7.526;2024-01-30T04:11:32;12.18;;;6.05;;
73900;SDS011;62235;52.160;7.526;2024-01-30T04:13:58;11.43;;;5.97;;
73900;SDS011;62235;52.160;7.526;2024-01-30T04:16:25;10.60;;;5.80;;
73900;SDS011;62235;52.160;7.526;2024-01-30T04:18:52;10.02;;;5.45;;
73900;SDS011;62235;52.160;7.526;2024-01-30T04:21:20;9.48;;;5.40;;
73900;SDS011;62235;52.160;7.526;2024-01-30T04:23:47;10.90;;;6.20;;
73900;SDS011;62235;52.160;7.526;2024-01-30T04:26:13;11.38;;;5.85;;
73900;SDS011;62235;52.160;7.526;2024-01-30T04:28:44;11.68;;;5.95;;
73900;SDS011;62235;52.160;7.526;2024-01-30T04:31:11;11.95;;;5.80;;
73900;SDS011;62235;52.160;7.526;2024-01-30T04:33:38;10.52;;;5.40;;
73900;SDS011;62235;52.160;7.526;2024-01-30T04:36:04;11.40;;;5.55;;
73900;SDS011;62235;52.160;7.526;2024-01-30T04:38:34;12.82;;;6.40;;
73900;SDS011;62235;52.160;7.526;2024-01-30T04:41:00;11.68;;;5.88;;
73900;SDS011;62235;52.160;7.526;2024-01-30T04:43:26;10.57;;;5.30;;
73900;SDS011;62235;52.160;7.526;2024-01-30T04:45:53;9.88;;;5.70;;
73900;SDS011;62235;52.160;7.526;2024-01-30T04:48:19;11.45;;;5.72;;
73900;SDS011;62235;52.160;7.526;2024-01-30T04:50:46;10.70;;;5.40;;
73900;SDS011;62235;52.160;7.526;2024-01-30T04:53:12;10.35;;;5.45;;
73900;SDS011;62235;52.160;7.526;2024-01-30T04:55:39;9.25;;;5.45;;
73900;SDS011;62235;52.160;7.526;2024-01-30T04:58:05;10.45;;;5.70;;
73900;SDS011;62235;52.160;7.526;2024-01-30T05:00:31;9.93;;;5.40;;
73900;SDS011;62235;52.160;7.526;2024-01-30T05:02:58;11.75;;;5.80;;
73900;SDS011;62235;52.160;7.526;2024-01-30T05:05:24;12.68;;;6.40;;
73900;SDS011;62235;52.160;7.526;2024-01-30T05:07:51;11.50;;;6.15;;
73900;SDS011;62235;52.160;7.526;2024-01-30T05:10:17;10.23;;;5.70;;
73900;SDS011;62235;52.160;7.526;2024-01-30T05:12:43;10.95;;;5.63;;
73900;SDS011;62235;52.160;7.526;2024-01-30T05:15:10;9.85;;;5.68;;
73900;SDS011;62235;52.160;7.526;2024-01-30T05:17:36;10.15;;;5.80;;
73900;SDS011;62235;52.160;7.526;2024-01-30T05:20:03;12.35;;;5.55;;
73900;SDS011;62235;52.160;7.526;2024-01-30T05:22:30;13.82;;;5.97;;
73900;SDS011;62235;52.160;7.526;2024-01-30T05:24:56;11.40;;;6.28;;
73900;SDS011;62235;52.160;7.526;2024-01-30T05:27:22;10.88;;;6.00;;
73900;SDS011;62235;52.160;7.526;2024-01-30T05:29:49;9.77;;;5.18;;
73900;SDS011;62235;52.160;7.526;2024-01-30T05:32:15;10.45;;;6.40;;
73900;SDS011;62235;52.160;7.526;2024-01-30T05:34:42;11.85;;;6.00;;
73900;SDS011;62235;52.160;7.526;2024-01-30T05:37:08;10.40;;;5.80;;
73900;SDS011;62235;52.160;7.526;2024-01-30T05:39:34;13.50;;;5.72;;
73900;SDS011;62235;52.160;7.526;2024-01-30T05:42:01;9.95;;;5.43;;
73900;SDS011;62235;52.160;7.526;2024-01-30T05:44:27;12.82;;;6.15;;
73900;SDS011;62235;52.160;7.526;2024-01-30T05:46:54;12.60;;;5.82;;
73900;SDS011;62235;52.160;7.526;2024-01-30T05:49:20;11.85;;;6.13;;
73900;SDS011;62235;52.160;7.526;2024-01-30T05:51:47;12.07;;;6.53;;
73900;SDS011;62235;52.160;7.526;2024-01-30T05:54:13;11.05;;;6.05;;
73900;SDS011;62235;52.160;7.526;2024-01-30T05:56:43;13.65;;;6.80;;
73900;SDS011;62235;52.160;7.526;2024-01-30T05:59:09;15.55;;;7.22;;
73900;SDS011;62235;52.160;7.526;2024-01-30T06:01:35;15.88;;;8.02;;
73900;SDS011;62235;52.160;7.526;2024-01-30T06:04:02;16.45;;;8.07;;
73900;SDS011;62235;52.160;7.526;2024-01-30T06:06:28;17.33;;;7.88;;
73900;SDS011;62235;52.160;7.526;2024-01-30T06:08:55;19.98;;;9.35;;
73900;SDS011;62235;52.160;7.526;2024-01-30T06:11:21;20.52;;;10.10;;
73900;SDS011;62235;52.160;7.526;2024-01-30T06:13:48;19.42;;;8.52;;
73900;SDS011;62235;52.160;7.526;2024-01-30T06:16:14;21.45;;;9.70;;
73900;SDS011;62235;52.160;7.526;2024-01-30T06:18:40;15.35;;;8.73;;
73900;SDS011;62235;52.160;7.526;2024-01-30T06:21:07;290.15;;;147.02;;
73900;SDS011;62235;52.160;7.526;2024-01-30T06:23:36;322.73;;;136.10;;
73900;SDS011;62235;52.160;7.526;2024-01-30T06:26:03;131.88;;;54.00;;
73900;SDS011;62235;52.160;7.526;2024-01-30T06:28:30;36.05;;;15.90;;
73900;SDS011;62235;52.160;7.526;2024-01-30T06:30:56;16.35;;;8.60;;
73900;SDS011;62235;52.160;7.526;2024-01-30T06:33:24;13.20;;;6.57;;
73900;SDS011;62235;52.160;7.526;2024-01-30T06:36:00;15.52;;;7.93;;
73900;SDS011;62235;52.160;7.526;2024-01-30T06:38:57;13.85;;;6.88;;
73900;SDS011;62235;52.160;7.526;2024-01-30T06:41:40;11.07;;;5.93;;
73900;SDS011;62235;52.160;7.526;2024-01-30T06:44:43;13.77;;;6.70;;
73900;SDS011;62235;52.160;7.526;2024-01-30T06:47:24;9.05;;;5.07;;
73900;SDS011;62235;52.160;7.526;2024-01-30T06:49:57;11.68;;;6.10;;
73900;SDS011;62235;52.160;7.526;2024-01-30T06:52:23;11.63;;;5.88;;
73900;SDS011;62235;52.160;7.526;2024-01-30T06:54:50;11.48;;;5.88;;
73900;SDS011;62235;52.160;7.526;2024-01-30T06:57:21;10.35;;;5.53;;
73900;SDS011;62235;52.160;7.526;2024-01-30T06:59:56;9.98;;;5.93;;
73900;SDS011;62235;52.160;7.526;2024-01-30T07:02:33;11.90;;;5.88;;
73900;SDS011;62235;52.160;7.526;2024-01-30T07:05:14;11.85;;;6.18;;
73900;SDS011;62235;52.160;7.526;2024-01-30T07:07:49;10.93;;;5.60;;
73900;SDS011;62235;52.160;7.526;2024-01-30T07:10:18;16.67;;;7.95;;
73900;SDS011;62235;52.160;7.526;2024-01-30T07:12:51;14.88;;;7.80;;
73900;SDS011;62235;52.160;7.526;2024-01-30T07:15:21;16.20;;;7.72;;
73900;SDS011;62235;52.160;7.526;2024-01-30T07:17:51;24.27;;;10.77;;
73900;SDS011;62235;52.160;7.526;2024-01-30T07:20:17;15.20;;;7.78;;
73900;SDS011;62235;52.160;7.526;2024-01-30T07:22:45;14.68;;;7.40;;
73900;SDS011;62235;52.160;7.526;2024-01-30T07:25:11;12.20;;;6.20;;
73900;SDS011;62235;52.160;7.526;2024-01-30T07:27:38;10.70;;;5.97;;
73900;SDS011;62235;52.160;7.526;2024-01-30T07:30:05;12.55;;;6.22;;
73900;SDS011;62235;52.160;7.526;2024-01-30T07:32:33;12.95;;;6.43;;
73900;SDS011;62235;52.160;7.526;2024-01-30T07:35:00;14.13;;;7.00;;
73900;SDS011;62235;52.160;7.526;2024-01-30T07:37:34;15.18;;;8.10;;
73900;SDS011;62235;52.160;7.526;2024-01-30T07:40:01;13.25;;;8.15;;
73900;SDS011;62235;52.160;7.526;2024-01-30T07:42:29;17.90;;;9.20;;
73900;SDS011;62235;52.160;7.526;2024-01-30T07:44:56;15.55;;;9.13;;
73900;SDS011;62235;52.160;7.526;2024-01-30T07:47:26;18.38;;;8.55;;
73900;SDS011;62235;52.160;7.526;2024-01-30T07:50:04;15.70;;;8.25;;
73900;SDS011;62235;52.160;7.526;2024-01-30T07:52:33;15.70;;;8.10;;
73900;SDS011;62235;52.160;7.526;2024-01-30T07:55:00;14.25;;;7.47;;
73900;SDS011;62235;52.160;7.526;2024-01-30T07:57:38;17.90;;;7.85;;
73900;SDS011;62235;52.160;7.526;2024-01-30T08:00:11;17.25;;;7.78;;
73900;SDS011;62235;52.160;7.526;2024-01-30T08:02:37;14.15;;;7.72;;
73900;SDS011;62235;52.160;7.526;2024-01-30T08:05:04;15.65;;;7.40;;
73900;SDS011;62235;52.160;7.526;2024-01-30T08:07:46;13.50;;;6.93;;
73900;SDS011;62235;52.160;7.526;2024-01-30T08:10:17;14.05;;;6.95;;
73900;SDS011;62235;52.160;7.526;2024-01-30T08:13:00;11.77;;;6.55;;
73900;SDS011;62235;52.160;7.526;2024-01-30T08:15:27;11.70;;;5.80;;
73900;SDS011;62235;52.160;7.526;2024-01-30T08:18:10;10.88;;;6.05;;
73900;SDS011;62235;52.160;7.526;2024-01-30T08:21:02;9.30;;;5.68;;
73900;SDS011;62235;52.160;7.526;2024-01-30T08:24:03;13.75;;;5.90;;
73900;SDS011;62235;52.160;7.526;2024-01-30T08:27:07;11.20;;;5.25;;
73900;SDS011;62235;52.160;7.526;2024-01-30T08:30:08;12.02;;;5.78;;
73900;SDS011;62235;52.160;7.526;2024-01-30T08:33:08;9.77;;;5.03;;
73900;SDS011;62235;52.160;7.526;2024-01-30T08:36:24;9.88;;;5.28;;
73900;SDS011;62235;52.160;7.526;2024-01-30T08:39:45;11.07;;;5.68;;
73900;SDS011;62235;52.160;7.526;2024-01-30T08:42:53;12.13;;;6.22;;
73900;SDS011;62235;52.160;7.526;2024-01-30T08:46:18;14.13;;;7.13;;
73900;SDS011;62235;52.160;7.526;2024-01-30T08:49:43;12.30;;;6.15;;
73900;SDS011;62235;52.160;7.526;2024-01-30T08:52:43;15.20;;;6.95;;
73900;SDS011;62235;52.160;7.526;2024-01-30T08:55:56;14.38;;;7.13;;
73900;SDS011;62235;52.160;7.526;2024-01-30T08:58:54;13.20;;;6.63;;
73900;SDS011;62235;52.160;7.526;2024-01-30T09:01:51;27.52;;;11.65;;
73900;SDS011;62235;52.160;7.526;2024-01-30T09:04:39;96.22;;;43.40;;
73900;SDS011;62235;52.160;7.526;2024-01-30T09:07:06;32.28;;;16.23;;
73900;SDS011;62235;52.160;7.526;2024-01-30T09:09:34;17.92;;;9.35;;
73900;SDS011;62235;52.160;7.526;2024-01-30T09:12:00;13.35;;;6.93;;
73900;SDS011;62235;52.160;7.526;2024-01-30T09:14:26;8.20;;;5.15;;
73900;SDS011;62235;52.160;7.526;2024-01-30T09:16:53;10.40;;;5.63;;
73900;SDS011;62235;52.160;7.526;2024-01-30T09:19:24;9.43;;;5.55;;
73900;SDS011;62235;52.160;7.526;2024-01-30T09:21:51;11.15;;;5.25;;
73900;SDS011;62235;52.160;7.526;2024-01-30T09:24:17;9.73;;;5.50;;
73900;SDS011;62235;52.160;7.526;2024-01-30T09:26:44;8.23;;;4.90;;
73900;SDS011;62235;52.160;7.526;2024-01-30T09:29:11;10.27;;;5.47;;
73900;SDS011;62235;52.160;7.526;2024-01-30T09:31:38;10.32;;;5.13;;
73900;SDS011;62235;52.160;7.526;2024-01-30T09:34:14;11.70;;;4.75;;
73900;SDS011;62235;52.160;7.526;2024-01-30T09:37:00;8.77;;;5.13;;
73900;SDS011;62235;52.160;7.526;2024-01-30T09:39:35;13.32;;;5.95;;
73900;SDS011;62235;52.160;7.526;2024-01-30T09:44:31;11.65;;;6.50;;
73900;SDS011;62235;52.160;7.526;2024-01-30T09:46:59;10.57;;;6.10;;
73900;SDS011;62235;52.160;7.526;2024-01-30T09:49:25;11.60;;;6.93;;
73900;SDS011;62235;52.160;7.526;2024-01-30T09:52:08;10.80;;;6.22;;
73900;SDS011;62235;52.160;7.526;2024-01-30T09:54:53;9.75;;;5.43;;
73900;SDS011;62235;52.160;7.526;2024-01-30T09:57:32;12.40;;;5.55;;
73900;SDS011;62235;52.160;7.526;2024-01-30T10:00:00;11.52;;;5.90;;
73900;SDS011;62235;52.160;7.526;2024-01-30T10:02:26;10.15;;;5.38;;
73900;SDS011;62235;52.160;7.526;2024-01-30T10:04:53;9.73;;;5.10;;
73900;SDS011;62235;52.160;7.526;2024-01-30T10:07:19;8.75;;;5.00;;
73900;SDS011;62235;52.160;7.526;2024-01-30T10:09:48;9.73;;;5.53;;
73900;SDS011;62235;52.160;7.526;2024-01-30T10:12:15;11.43;;;5.13;;
73900;SDS011;62235;52.160;7.526;2024-01-30T10:14:42;12.60;;;5.78;;
73900;SDS011;62235;52.160;7.526;2024-01-30T10:17:09;14.90;;;6.18;;
73900;SDS011;62235;52.160;7.526;2024-01-30T10:19:49;10.98;;;6.07;;
73900;SDS011;62235;52.160;7.526;2024-01-30T10:22:16;11.20;;;5.65;;
73900;SDS011;62235;52.160;7.526;2024-01-30T10:24:43;10.43;;;5.18;;
73900;SDS011;62235;52.160;7.526;2024-01-30T10:27:09;9.73;;;4.90;;
73900;SDS011;62235;52.160;7.526;2024-01-30T10:29:35;9.40;;;4.75;;
73900;SDS011;62235;52.160;7.526;2024-01-30T10:32:04;9.65;;;4.82;;
73900;SDS011;62235;52.160;7.526;2024-01-30T10:34:31;11.02;;;5.80;;
73900;SDS011;62235;52.160;7.526;2024-01-30T10:39:36;12.70;;;5.55;;
73900;SDS011;62235;52.160;7.526;2024-01-30T10:42:04;7.20;;;4.82;;
73900;SDS011;62235;52.160;7.526;2024-01-30T10:44:39;9.38;;;4.85;;
73900;SDS011;62235;52.160;7.526;2024-01-30T10:47:11;8.23;;;4.35;;
73900;SDS011;62235;52.160;7.526;2024-01-30T10:49:39;8.23;;;4.00;;
73900;SDS011;62235;52.160;7.526;2024-01-30T10:52:06;8.00;;;4.32;;
73900;SDS011;62235;52.160;7.526;2024-01-30T10:54:34;8.48;;;4.45;;
73900;SDS011;62235;52.160;7.526;2024-01-30T10:57:01;6.70;;;3.72;;
73900;SDS011;62235;52.160;7.526;2024-01-30T10:59:27;10.40;;;4.55;;
73900;SDS011;62235;52.160;7.526;2024-01-30T11:01:54;7.60;;;4.18;;
73900;SDS011;62235;52.160;7.526;2024-01-30T11:04:21;9.38;;;4.40;;
73900;SDS011;62235;52.160;7.526;2024-01-30T11:06:48;6.53;;;3.85;;
73900;SDS011;62235;52.160;7.526;2024-01-30T11:09:16;9.18;;;4.63;;
73900;SDS011;62235;52.160;7.526;2024-01-30T11:11:58;8.85;;;4.45;;
73900;SDS011;62235;52.160;7.526;2024-01-30T11:14:26;9.25;;;4.25;;
73900;SDS011;62235;52.160;7.526;2024-01-30T11:21:16;9.45;;;4.35;;
73900;SDS011;62235;52.160;7.526;2024-01-30T11:24:41;10.38;;;5.07;;
73900;SDS011;62235;52.160;7.526;2024-01-30T11:27:14;6.93;;;4.47;;
73900;SDS011;62235;52.160;7.526;2024-01-30T11:30:39;11.07;;;4.25;;
73900;SDS011;62235;52.160;7.526;2024-01-30T11:34:14;8.23;;;4.00;;
73900;SDS011;62235;52.160;7.526;2024-01-30T11:37:13;7.18;;;4.28;;
73900;SDS011;62235;52.160;7.526;2024-01-30T11:40:04;9.68;;;4.22;;
73900;SDS011;62235;52.160;7.526;2024-01-30T11:43:28;10.68;;;4.28;;
73900;SDS011;62235;52.160;7.526;2024-01-30T11:46:53;9.27;;;3.88;;
73900;SDS011;62235;52.160;7.526;2024-01-30T11:50:19;6.35;;;3.83;;
73900;SDS011;62235;52.160;7.526;2024-01-30T11:53:49;12.68;;;4.28;;
73900;SDS011;62235;52.160;7.526;2024-01-30T11:56:58;7.90;;;3.80;;
73900;SDS011;62235;52.160;7.526;2024-01-30T11:59:24;10.25;;;4.15;;
73900;SDS011;62235;52.160;7.526;2024-01-30T12:02:49;10.27;;;4.25;;
73900;SDS011;62235;52.160;7.526;2024-01-30T12:06:17;6.30;;;3.80;;
73900;SDS011;62235;52.160;7.526;2024-01-30T12:09:42;7.95;;;3.90;;
73900;SDS011;62235;52.160;7.526;2024-01-30T12:12:37;9.20;;;4.45;;
73900;SDS011;62235;52.160;7.526;2024-01-30T12:15:21;7.30;;;4.30;;
73900;SDS011;62235;52.160;7.526;2024-01-30T12:18:06;7.72;;;4.38;;
73900;SDS011;62235;52.160;7.526;2024-01-30T12:20:34;7.55;;;4.53;;
73900;SDS011;62235;52.160;7.526;2024-01-30T12:23:59;12.10;;;4.65;;
73900;SDS011;62235;52.160;7.526;2024-01-30T12:27:24;9.55;;;4.60;;
73900;SDS011;62235;52.160;7.526;2024-01-30T12:30:49;9.57;;;5.20;;
73900;SDS011;62235;52.160;7.526;2024-01-30T12:34:15;7.90;;;4.13;;
73900;SDS011;62235;52.160;7.526;2024-01-30T12:37:44;9.40;;;4.05;;
73900;SDS011;62235;52.160;7.526;2024-01-30T12:41:10;8.60;;;4.63;;
73900;SDS011;62235;52.160;7.526;2024-01-30T12:44:35;12.93;;;4.57;;
73900;SDS011;62235;52.160;7.526;2024-01-30T12:48:00;12.27;;;4.95;;
73900;SDS011;62235;52.160;7.526;2024-01-30T12:51:25;7.03;;;4.03;;
73900;SDS011;62235;52.160;7.526;2024-01-30T12:54:50;10.23;;;4.40;;
73900;SDS011;62235;52.160;7.526;2024-01-30T12:58:16;9.30;;;4.47;;
73900;SDS011;62235;52.160;7.526;2024-01-30T13:01:41;7.93;;;4.30;;
73900;SDS011;62235;52.160;7.526;2024-01-30T13:05:06;8.30;;;4.28;;
73900;SDS011;62235;52.160;7.526;2024-01-30T13:08:31;12.68;;;4.63;;
73900;SDS011;62235;52.160;7.526;2024-01-30T13:11:56;11.43;;;4.90;;
73900;SDS011;62235;52.160;7.526;2024-01-30T13:15:21;10.23;;;4.55;;
73900;SDS011;62235;52.160;7.526;2024-01-30T13:18:46;10.13;;;4.75;;
73900;SDS011;62235;52.160;7.526;2024-01-30T13:22:11;8.43;;;4.47;;
73900;SDS011;62235;52.160;7.526;2024-01-30T13:25:36;9.95;;;4.88;;
73900;SDS011;62235;52.160;7.526;2024-01-30T13:29:01;7.07;;;4.10;;
73900;SDS011;62235;52.160;7.526;2024-01-30T13:31:27;7.57;;;4.57;;
73900;SDS011;62235;52.160;7.526;2024-01-30T13:34:00;8.85;;;4.32;;
73900;SDS011;62235;52.160;7.526;2024-01-30T13:36:28;79.55;;;38.45;;
73900;SDS011;62235;52.160;7.526;2024-01-30T13:38:54;12.63;;;6.50;;
73900;SDS011;62235;52.160;7.526;2024-01-30T13:41:21;12.18;;;6.28;;
73900;SDS011;62235;52.160;7.526;2024-01-30T13:43:56;8.50;;;4.20;;
73900;SDS011;62235;52.160;7.526;2024-01-30T13:47:21;10.32;;;4.05;;
73900;SDS011;62235;52.160;7.526;2024-01-30T13:50:46;8.07;;;4.15;;
73900;SDS011;62235;52.160;7.526;2024-01-30T13:54:09;7.82;;;4.10;;
73900;SDS011;62235;52.160;7.526;2024-01-30T13:56:51;8.25;;;4.20;;
73900;SDS011;62235;52.160;7.526;2024-01-30T13:59:59;9.23;;;4.25;;
73900;SDS011;62235;52.160;7.526;2024-01-30T14:02:26;7.88;;;3.95;;
73900;SDS011;62235;52.160;7.526;2024-01-30T14:04:53;9.98;;;4.13;;
73900;SDS011;62235;52.160;7.526;2024-01-30T14:07:19;10.73;;;4.45;;
73900;SDS011;62235;52.160;7.526;2024-01-30T14:09:48;7.57;;;4.28;;
73900;SDS011;62235;52.160;7.526;2024-01-30T14:12:16;8.73;;;4.68;;
73900;SDS011;62235;52.160;7.526;2024-01-30T14:14:42;11.18;;;5.07;;
73900;SDS011;62235;52.160;7.526;2024-01-30T14:17:09;9.48;;;4.50;;
73900;SDS011;62235;52.160;7.526;2024-01-30T14:19:35;9.30;;;4.40;;
73900;SDS011;62235;52.160;7.526;2024-01-30T14:22:02;8.98;;;4.70;;
73900;SDS011;62235;52.160;7.526;2024-01-30T14:24:29;6.90;;;4.15;;
73900;SDS011;62235;52.160;7.526;2024-01-30T14:26:56;7.97;;;4.47;;
73900;SDS011;62235;52.160;7.526;2024-01-30T14:29:22;8.80;;;4.05;;
73900;SDS011;62235;52.160;7.526;2024-01-30T14:31:53;7.68;;;4.32;;
73900;SDS011;62235;52.160;7.526;2024-01-30T14:34:20;7.57;;;3.92;;
73900;SDS011;62235;52.160;7.526;2024-01-30T14:36:47;54.13;;;26.83;;
73900;SDS011;62235;52.160;7.526;2024-01-30T14:39:59;34.88;;;16.95;;
73900;SDS011;62235;52.160;7.526;2024-01-30T14:42:53;9.02;;;4.50;;
73900;SDS011;62235;52.160;7.526;2024-01-30T14:45:36;9.13;;;3.90;;
73900;SDS011;62235;52.160;7.526;2024-01-30T14:48:04;7.25;;;3.90;;
73900;SDS011;62235;52.160;7.526;2024-01-30T14:51:14;6.07;;;3.47;;
73900;SDS011;62235;52.160;7.526;2024-01-30T14:54:02;7.28;;;3.30;;
73900;SDS011;62235;52.160;7.526;2024-01-30T14:57:10;7.80;;;3.70;;
73900;SDS011;62235;52.160;7.526;2024-01-30T15:00:24;6.07;;;3.63;;
73900;SDS011;62235;52.160;7.526;2024-01-30T15:02:51;10.10;;;4.40;;
73900;SDS011;62235;52.160;7.526;2024-01-30T15:06:16;8.95;;;3.85;;
73900;SDS011;62235;52.160;7.526;2024-01-30T15:09:34;6.82;;;3.58;;
73900;SDS011;62235;52.160;7.526;2024-01-30T15:12:46;5.68;;;3.10;;
73900;SDS011;62235;52.160;7.526;2024-01-30T15:15:48;6.50;;;3.67;;
73900;SDS011;62235;52.160;7.526;2024-01-30T15:19:10;7.78;;;3.65;;
73900;SDS011;62235;52.160;7.526;2024-01-30T15:22:34;13.88;;;7.68;;
73900;SDS011;62235;52.160;7.526;2024-01-30T15:25:58;11.63;;;6.72;;
73900;SDS011;62235;52.160;7.526;2024-01-30T15:29:21;7.75;;;3.17;;
73900;SDS011;62235;52.160;7.526;2024-01-30T15:32:41;8.38;;;2.85;;
73900;SDS011;62235;52.160;7.526;2024-01-30T15:36:04;3.22;;;2.05;;
73900;SDS011;62235;52.160;7.526;2024-01-30T15:39:19;5.55;;;2.10;;
73900;SDS011;62235;52.160;7.526;2024-01-30T15:42:24;3.25;;;1.90;;
73900;SDS011;62235;52.160;7.526;2024-01-30T15:45:49;5.50;;;2.15;;
73900;SDS011;62235;52.160;7.526;2024-01-30T15:49:12;4.47;;;2.30;;
73900;SDS011;62235;52.160;7.526;2024-01-30T15:51:53;4.53;;;2.15;;
73900;SDS011;62235;52.160;7.526;2024-01-30T15:54:20;4.38;;;2.10;;